Bern Belp Airport

Airport
ICAO code: 
LSZB
IATA Code: 
BRN
Summary
ICAO Region: 
EUR
Territory: 
Location: 
Belp, Bern
Serving: 
Bern
Elevation: 
1674 ft
Coordinates: 
Aerial View: 
46° 54' 50.76" N, 7° 29' 49.751" E
Metar
Observation
LSZB 011050Z 05005KT 4000 BR BKN003 03/03 Q1006 NOSIG
Station
Bern / Belp
Date/Time
2021-12-01 10:50:00
Wind direction
50°
Wind speed
05 kts
Lowest cloud amount
broken clouds
Temperature
3°C
Dew point
3°C
Humidity
100%
QNH
1006 hPa
Weather condition
n/a

Bern Airport is an airport serving Bern, the capital of Switzerland. The airport is located within the town limits of Belp.

Climatology

Humid “subtropical” climate (Köppen climate classification Cfa)

Runways

Designator Length Width Surface Rops
14R/32L 648 30 GRS No/No
14L/32R 650 30 GRS No/No
14/32 1510 30 ASP Yes/Yes
Airport map: 
Aerial View: 

SKYbrary Partners:

Safety knowledge contributed by: